sensor_id;sensor_type;location;lat;lon;timestamp;pressure;altitude;pressure_sealevel;temperature;humidity
6150;BME280;3106;42.670;23.318;2023-07-20T00:01:51;94164.16;;;24.19;62.82
6150;BME280;3106;42.670;23.318;2023-07-20T00:04:18;94160.00;;;24.27;61.17
6150;BME280;3106;42.670;23.318;2023-07-20T00:06:44;94167.66;;;24.32;61.42
6150;BME280;3106;42.670;23.318;2023-07-20T00:09:12;94169.56;;;24.48;64.94
6150;BME280;3106;42.670;23.318;2023-07-20T00:11:39;94168.72;;;24.51;65.86
6150;BME280;3106;42.670;23.318;2023-07-20T00:14:06;94163.00;;;24.45;65.56
6150;BME280;3106;42.670;23.318;2023-07-20T00:16:33;94171.63;;;24.44;65.58
6150;BME280;3106;42.670;23.318;2023-07-20T00:19:02;94181.69;;;24.47;63.05
6150;BME280;3106;42.670;23.318;2023-07-20T00:21:30;94174.13;;;24.38;63.50
6150;BME280;3106;42.670;23.318;2023-07-20T00:23:57;94173.47;;;24.34;63.90
6150;BME280;3106;42.670;23.318;2023-07-20T00:26:24;94183.44;;;24.41;62.66
6150;BME280;3106;42.670;23.318;2023-07-20T00:28:50;94189.78;;;24.38;62.58
6150;BME280;3106;42.670;23.318;2023-07-20T00:31:18;94175.22;;;24.41;61.90
6150;BME280;3106;42.670;23.318;2023-07-20T00:33:44;94178.63;;;24.45;62.16
6150;BME280;3106;42.670;23.318;2023-07-20T00:36:18;94164.41;;;24.37;61.83
6150;BME280;3106;42.670;23.318;2023-07-20T00:38:45;94165.84;;;24.42;61.31
6150;BME280;3106;42.670;23.318;2023-07-20T00:41:12;94172.63;;;24.50;60.60
6150;BME280;3106;42.670;23.318;2023-07-20T00:43:40;94163.00;;;24.45;61.00
6150;BME280;3106;42.670;23.318;2023-07-20T00:46:08;94157.22;;;24.43;60.48
6150;BME280;3106;42.670;23.318;2023-07-20T00:48:35;94154.91;;;24.42;61.77
6150;BME280;3106;42.670;23.318;2023-07-20T00:51:02;94157.84;;;24.35;63.22
6150;BME280;3106;42.670;23.318;2023-07-20T00:53:30;94151.78;;;24.15;65.30
6150;BME280;3106;42.670;23.318;2023-07-20T00:55:58;94156.41;;;23.89;66.30
6150;BME280;3106;42.670;23.318;2023-07-20T00:58:25;94144.81;;;23.57;69.03
6150;BME280;3106;42.670;23.318;2023-07-20T01:00:52;94142.44;;;23.43;70.19
6150;BME280;3106;42.670;23.318;2023-07-20T01:03:19;94137.44;;;23.25;71.67
6150;BME280;3106;42.670;23.318;2023-07-20T01:05:51;94135.00;;;23.15;72.41
6150;BME280;3106;42.670;23.318;2023-07-20T01:08:25;94142.53;;;23.07;73.17
6150;BME280;3106;42.670;23.318;2023-07-20T01:11:00;94149.91;;;23.10;74.70
6150;BME280;3106;42.670;23.318;2023-07-20T01:13:29;94166.66;;;23.09;74.67
6150;BME280;3106;42.670;23.318;2023-07-20T01:15:57;94161.03;;;23.00;75.80
6150;BME280;3106;42.670;23.318;2023-07-20T01:18:25;94158.13;;;22.91;76.27
6150;BME280;3106;42.670;23.318;2023-07-20T01:20:53;94157.03;;;22.89;77.97
6150;BME280;3106;42.670;23.318;2023-07-20T01:26:38;94153.72;;;22.81;79.51
6150;BME280;3106;42.670;23.318;2023-07-20T01:29:22;94149.19;;;22.75;80.19
6150;BME280;3106;42.670;23.318;2023-07-20T01:31:54;94151.47;;;22.76;80.85
6150;BME280;3106;42.670;23.318;2023-07-20T01:34:22;94151.41;;;22.64;80.65
6150;BME280;3106;42.670;23.318;2023-07-20T01:36:50;94154.69;;;22.55;81.11
6150;BME280;3106;42.670;23.318;2023-07-20T01:39:20;94168.63;;;22.41;82.29
6150;BME280;3106;42.670;23.318;2023-07-20T01:41:48;94163.53;;;22.43;83.00
6150;BME280;3106;42.670;23.318;2023-07-20T01:44:15;94152.66;;;22.43;82.51
6150;BME280;3106;42.670;23.318;2023-07-20T01:46:42;94160.81;;;22.43;82.49
6150;BME280;3106;42.670;23.318;2023-07-20T01:49:10;94141.84;;;22.36;82.83
6150;BME280;3106;42.670;23.318;2023-07-20T01:51:37;94146.59;;;22.32;82.76
6150;BME280;3106;42.670;23.318;2023-07-20T01:54:04;94148.31;;;22.26;83.65
6150;BME280;3106;42.670;23.318;2023-07-20T01:56:30;94143.75;;;22.20;83.84
6150;BME280;3106;42.670;23.318;2023-07-20T01:58:57;94136.88;;;22.15;84.44
6150;BME280;3106;42.670;23.318;2023-07-20T02:01:24;94158.09;;;22.24;83.82
6150;BME280;3106;42.670;23.318;2023-07-20T02:03:54;94149.50;;;22.25;83.31
6150;BME280;3106;42.670;23.318;2023-07-20T02:06:22;94136.88;;;22.15;83.53
6150;BME280;3106;42.670;23.318;2023-07-20T02:08:49;94138.41;;;22.16;83.33
6150;BME280;3106;42.670;23.318;2023-07-20T02:11:16;94143.06;;;22.16;83.44
6150;BME280;3106;42.670;23.318;2023-07-20T02:13:43;94136.03;;;22.18;83.19
6150;BME280;3106;42.670;23.318;2023-07-20T02:16:10;94146.91;;;22.18;83.52
6150;BME280;3106;42.670;23.318;2023-07-20T02:18:37;94125.41;;;22.04;83.93
6150;BME280;3106;42.670;23.318;2023-07-20T02:21:04;94142.72;;;22.14;84.45
6150;BME280;3106;42.670;23.318;2023-07-20T02:23:32;94138.97;;;22.08;84.15
6150;BME280;3106;42.670;23.318;2023-07-20T02:25:59;94150.22;;;22.10;84.43
6150;BME280;3106;42.670;23.318;2023-07-20T02:28:26;94139.03;;;22.04;84.70
6150;BME280;3106;42.670;23.318;2023-07-20T02:30:54;94146.44;;;22.04;85.10
6150;BME280;3106;42.670;23.318;2023-07-20T02:33:21;94142.94;;;22.03;84.79
6150;BME280;3106;42.670;23.318;2023-07-20T02:35:47;94144.06;;;22.06;84.72
6150;BME280;3106;42.670;23.318;2023-07-20T02:38:15;94128.91;;;22.05;85.48
6150;BME280;3106;42.670;23.318;2023-07-20T02:40:43;94128.78;;;22.12;85.00
6150;BME280;3106;42.670;23.318;2023-07-20T02:43:10;94127.56;;;22.13;84.88
6150;BME280;3106;42.670;23.318;2023-07-20T02:45:40;94116.78;;;22.09;84.73
6150;BME280;3106;42.670;23.318;2023-07-20T02:48:08;94119.84;;;22.11;84.83
6150;BME280;3106;42.670;23.318;2023-07-20T02:50:34;94116.34;;;22.11;84.73
6150;BME280;3106;42.670;23.318;2023-07-20T02:53:02;94116.91;;;22.02;85.16
6150;BME280;3106;42.670;23.318;2023-07-20T02:55:29;94120.34;;;22.06;84.91
6150;BME280;3106;42.670;23.318;2023-07-20T02:57:57;94116.16;;;22.02;85.15
6150;BME280;3106;42.670;23.318;2023-07-20T03:00:24;94112.66;;;22.01;85.52
6150;BME280;3106;42.670;23.318;2023-07-20T03:02:53;94117.69;;;22.03;85.99
6150;BME280;3106;42.670;23.318;2023-07-20T03:05:21;94114.34;;;21.95;85.98
6150;BME280;3106;42.670;23.318;2023-07-20T03:07:49;94120.81;;;22.01;85.13
6150;BME280;3106;42.670;23.318;2023-07-20T03:10:16;94119.63;;;22.02;85.50
6150;BME280;3106;42.670;23.318;2023-07-20T03:12:43;94122.28;;;22.06;86.05
6150;BME280;3106;42.670;23.318;2023-07-20T03:15:11;94125.63;;;22.13;85.58
6150;BME280;3106;42.670;23.318;2023-07-20T03:17:38;94121.72;;;22.14;85.96
6150;BME280;3106;42.670;23.318;2023-07-20T03:20:06;94119.41;;;22.13;85.67
6150;BME280;3106;42.670;23.318;2023-07-20T03:22:35;94137.47;;;22.23;85.17
6150;BME280;3106;42.670;23.318;2023-07-20T03:25:02;94130.44;;;22.25;84.73
6150;BME280;3106;42.670;23.318;2023-07-20T03:27:29;94137.69;;;22.32;85.23
6150;BME280;3106;42.670;23.318;2023-07-20T03:29:56;94145.75;;;22.35;85.33
6150;BME280;3106;42.670;23.318;2023-07-20T03:32:24;94140.06;;;22.30;84.70
6150;BME280;3106;42.670;23.318;2023-07-20T03:34:51;94141.84;;;22.36;84.57
6150;BME280;3106;42.670;23.318;2023-07-20T03:37:18;94104.72;;;22.26;84.13
6150;BME280;3106;42.670;23.318;2023-07-20T03:39:45;94134.25;;;22.47;84.07
6150;BME280;3106;42.670;23.318;2023-07-20T03:42:12;94128.03;;;22.47;82.72
6150;BME280;3106;42.670;23.318;2023-07-20T03:44:39;94135.28;;;22.53;82.77
6150;BME280;3106;42.670;23.318;2023-07-20T03:47:06;94142.25;;;22.54;82.26
6150;BME280;3106;42.670;23.318;2023-07-20T03:49:34;94140.91;;;22.62;83.11
6150;BME280;3106;42.670;23.318;2023-07-20T03:52:01;94143.28;;;22.60;82.00
6150;BME280;3106;42.670;23.318;2023-07-20T03:54:28;94133.91;;;22.61;82.09
6150;BME280;3106;42.670;23.318;2023-07-20T03:56:55;94139.97;;;22.69;81.59
6150;BME280;3106;42.670;23.318;2023-07-20T03:59:22;94143.63;;;22.78;81.84
6150;BME280;3106;42.670;23.318;2023-07-20T04:01:49;94151.66;;;22.85;81.43
6150;BME280;3106;42.670;23.318;2023-07-20T04:04:16;94151.56;;;22.89;81.44
6150;BME280;3106;42.670;23.318;2023-07-20T04:06:44;94149.78;;;22.98;81.74
6150;BME280;3106;42.670;23.318;2023-07-20T04:09:12;94143.47;;;23.01;81.85
6150;BME280;3106;42.670;23.318;2023-07-20T04:11:39;94139.66;;;22.99;80.86
6150;BME280;3106;42.670;23.318;2023-07-20T04:14:06;94132.66;;;22.98;78.98
6150;BME280;3106;42.670;23.318;2023-07-20T04:16:33;94138.03;;;23.01;78.53
6150;BME280;3106;42.670;23.318;2023-07-20T04:19:02;94138.63;;;22.93;76.87
6150;BME280;3106;42.670;23.318;2023-07-20T04:21:29;94130.88;;;22.91;77.46
6150;BME280;3106;42.670;23.318;2023-07-20T04:23:57;94115.59;;;22.94;77.64
6150;BME280;3106;42.670;23.318;2023-07-20T04:26:24;94127.44;;;23.03;77.54
6150;BME280;3106;42.670;23.318;2023-07-20T04:28:51;94128.47;;;23.09;76.99
6150;BME280;3106;42.670;23.318;2023-07-20T04:31:18;94125.63;;;23.16;77.09
6150;BME280;3106;42.670;23.318;2023-07-20T04:33:45;94127.47;;;23.19;77.93
6150;BME280;3106;42.670;23.318;2023-07-20T04:36:11;94124.75;;;23.19;78.39
6150;BME280;3106;42.670;23.318;2023-07-20T04:38:40;94112.97;;;23.22;78.29
6150;BME280;3106;42.670;23.318;2023-07-20T04:41:08;94118.50;;;23.34;77.77
6150;BME280;3106;42.670;23.318;2023-07-20T04:43:41;94112.69;;;23.32;77.99
6150;BME280;3106;42.670;23.318;2023-07-20T04:46:09;94117.31;;;23.35;78.17
6150;BME280;3106;42.670;23.318;2023-07-20T04:48:35;94123.25;;;23.46;77.47
6150;BME280;3106;42.670;23.318;2023-07-20T04:51:03;94116.47;;;23.51;77.37
6150;BME280;3106;42.670;23.318;2023-07-20T04:53:30;94102.63;;;23.45;76.86
6150;BME280;3106;42.670;23.318;2023-07-20T04:55:57;94123.31;;;23.59;76.11
6150;BME280;3106;42.670;23.318;2023-07-20T04:58:26;94114.13;;;23.65;76.21
6150;BME280;3106;42.670;23.318;2023-07-20T05:00:53;94115.84;;;23.75;75.49
6150;BME280;3106;42.670;23.318;2023-07-20T05:03:20;94125.41;;;23.96;75.48
6150;BME280;3106;42.670;23.318;2023-07-20T05:05:47;94123.47;;;24.09;74.82
6150;BME280;3106;42.670;23.318;2023-07-20T05:08:14;94126.88;;;24.25;74.32
6150;BME280;3106;42.670;23.318;2023-07-20T05:10:41;94113.47;;;24.31;72.68
6150;BME280;3106;42.670;23.318;2023-07-20T05:13:08;94125.50;;;24.46;72.38
6150;BME280;3106;42.670;23.318;2023-07-20T05:15:36;94129.75;;;24.47;70.40
6150;BME280;3106;42.670;23.318;2023-07-20T05:18:03;94129.44;;;24.45;69.79
6150;BME280;3106;42.670;23.318;2023-07-20T05:20:30;94129.44;;;24.45;70.26
6150;BME280;3106;42.670;23.318;2023-07-20T05:22:58;94129.47;;;24.69;69.67
6150;BME280;3106;42.670;23.318;2023-07-20T05:25:25;94113.16;;;24.66;68.85
6150;BME280;3106;42.670;23.318;2023-07-20T05:27:52;94124.91;;;25.13;67.42
6150;BME280;3106;42.670;23.318;2023-07-20T05:30:21;94137.75;;;26.69;61.87
6150;BME280;3106;42.670;23.318;2023-07-20T05:32:49;94151.28;;;28.50;55.36
6150;BME280;3106;42.670;23.318;2023-07-20T05:35:17;94154.97;;;29.30;51.34
6150;BME280;3106;42.670;23.318;2023-07-20T05:37:44;94150.44;;;30.50;48.78
6150;BME280;3106;42.670;23.318;2023-07-20T05:40:12;94149.72;;;31.81;44.98
6150;BME280;3106;42.670;23.318;2023-07-20T05:42:40;94168.09;;;32.95;42.35
6150;BME280;3106;42.670;23.318;2023-07-20T05:45:07;94172.03;;;33.81;40.37
6150;BME280;3106;42.670;23.318;2023-07-20T05:47:34;94166.09;;;34.74;38.57
6150;BME280;3106;42.670;23.318;2023-07-20T05:50:02;94169.16;;;35.58;36.62
6150;BME280;3106;42.670;23.318;2023-07-20T05:52:29;94175.47;;;35.64;35.86
6150;BME280;3106;42.670;23.318;2023-07-20T05:54:56;94168.53;;;34.39;37.81
6150;BME280;3106;42.670;23.318;2023-07-20T05:57:23;94170.66;;;34.77;37.40
6150;BME280;3106;42.670;23.318;2023-07-20T05:59:50;94176.47;;;35.12;36.75
6150;BME280;3106;42.670;23.318;2023-07-20T06:02:17;94163.59;;;35.31;35.88
6150;BME280;3106;42.670;23.318;2023-07-20T06:04:44;94161.06;;;35.55;35.93
6150;BME280;3106;42.670;23.318;2023-07-20T06:07:13;94168.16;;;35.34;35.28
6150;BME280;3106;42.670;23.318;2023-07-20T06:09:39;94169.16;;;35.64;35.44
6150;BME280;3106;42.670;23.318;2023-07-20T06:12:07;94162.53;;;35.83;34.60
6150;BME280;3106;42.670;23.318;2023-07-20T06:14:34;94174.03;;;36.31;33.94
6150;BME280;3106;42.670;23.318;2023-07-20T06:17:01;94163.94;;;36.74;33.34
6150;BME280;3106;42.670;23.318;2023-07-20T06:19:28;94158.91;;;36.05;34.26
6150;BME280;3106;42.670;23.318;2023-07-20T06:21:55;94144.84;;;35.75;34.20
6150;BME280;3106;42.670;23.318;2023-07-20T06:24:25;94140.59;;;35.03;35.22
6150;BME280;3106;42.670;23.318;2023-07-20T06:26:52;94141.84;;;34.96;35.14
6150;BME280;3106;42.670;23.318;2023-07-20T06:29:19;94132.00;;;35.23;35.22
6150;BME280;3106;42.670;23.318;2023-07-20T06:31:46;94128.44;;;35.11;35.23
6150;BME280;3106;42.670;23.318;2023-07-20T06:34:13;94138.03;;;34.77;36.23
6150;BME280;3106;42.670;23.318;2023-07-20T06:36:39;94134.03;;;34.84;35.44
6150;BME280;3106;42.670;23.318;2023-07-20T06:39:06;94143.38;;;34.86;35.29
6150;BME280;3106;42.670;23.318;2023-07-20T06:41:34;94131.91;;;34.41;35.84
6150;BME280;3106;42.670;23.318;2023-07-20T06:44:01;94134.00;;;34.67;36.03
6150;BME280;3106;42.670;23.318;2023-07-20T06:46:30;94130.72;;;34.69;35.88
6150;BME280;3106;42.670;23.318;2023-07-20T06:48:57;94136.94;;;34.26;36.72
6150;BME280;3106;42.670;23.318;2023-07-20T06:51:24;94136.88;;;34.15;36.83
6150;BME280;3106;42.670;23.318;2023-07-20T06:53:51;94129.41;;;34.48;36.70
6150;BME280;3106;42.670;23.318;2023-07-20T06:56:18;94139.59;;;34.89;35.47
6150;BME280;3106;42.670;23.318;2023-07-20T06:58:46;94136.06;;;35.16;35.20
6150;BME280;3106;42.670;23.318;2023-07-20T07:01:13;94156.78;;;35.26;35.40
6150;BME280;3106;42.670;23.318;2023-07-20T07:03:40;94166.38;;;35.14;35.47
6150;BME280;3106;42.670;23.318;2023-07-20T07:06:07;94160.06;;;35.30;35.77
6150;BME280;3106;42.670;23.318;2023-07-20T07:08:33;94166.28;;;34.49;36.96
6150;BME280;3106;42.670;23.318;2023-07-20T07:11:01;94161.97;;;33.84;38.14
6150;BME280;3106;42.670;23.318;2023-07-20T07:13:28;94164.97;;;33.13;39.53
6150;BME280;3106;42.670;23.318;2023-07-20T07:15:57;94168.81;;;31.79;41.85
6150;BME280;3106;42.670;23.318;2023-07-20T07:18:24;94184.22;;;31.31;43.96
6150;BME280;3106;42.670;23.318;2023-07-20T07:20:52;94196.91;;;30.80;45.02
6150;BME280;3106;42.670;23.318;2023-07-20T07:23:19;94197.00;;;30.86;45.47
6150;BME280;3106;42.670;23.318;2023-07-20T07:25:45;94201.28;;;30.58;45.94
6150;BME280;3106;42.670;23.318;2023-07-20T07:28:13;94204.16;;;30.02;46.67
6150;BME280;3106;42.670;23.318;2023-07-20T07:30:39;94197.19;;;29.68;47.87
6150;BME280;3106;42.670;23.318;2023-07-20T07:33:08;94190.66;;;29.57;48.63
6150;BME280;3106;42.670;23.318;2023-07-20T07:35:36;94190.91;;;29.03;50.03
6150;BME280;3106;42.670;23.318;2023-07-20T07:38:03;94187.41;;;28.94;50.49
6150;BME280;3106;42.670;23.318;2023-07-20T07:40:30;94180.06;;;29.00;51.28
6150;BME280;3106;42.670;23.318;2023-07-20T07:42:57;94182.63;;;28.35;52.65
6150;BME280;3106;42.670;23.318;2023-07-20T07:45:24;94172.19;;;28.66;52.07
6150;BME280;3106;42.670;23.318;2023-07-20T07:47:51;94190.06;;;28.61;52.68
6150;BME280;3106;42.670;23.318;2023-07-20T07:50:19;94159.53;;;28.50;52.94
6150;BME280;3106;42.670;23.318;2023-07-20T07:52:46;94139.38;;;28.95;51.66
6150;BME280;3106;42.670;23.318;2023-07-20T07:55:13;94131.81;;;29.37;50.65
6150;BME280;3106;42.670;23.318;2023-07-20T07:57:42;94150.97;;;29.31;50.27
6150;BME280;3106;42.670;23.318;2023-07-20T08:00:09;94159.97;;;29.41;50.35
6150;BME280;3106;42.670;23.318;2023-07-20T08:02:40;94138.00;;;29.55;50.46
6150;BME280;3106;42.670;23.318;2023-07-20T08:05:07;94152.59;;;29.47;50.43
6150;BME280;3106;42.670;23.318;2023-07-20T08:07:35;94141.38;;;28.94;51.39
6150;BME280;3106;42.670;23.318;2023-07-20T08:10:03;94191.66;;;29.04;52.16
6150;BME280;3106;42.670;23.318;2023-07-20T08:12:30;94191.25;;;28.78;52.42
6150;BME280;3106;42.670;23.318;2023-07-20T08:14:57;94204.31;;;28.24;53.54
6150;BME280;3106;42.670;23.318;2023-07-20T08:17:24;94189.97;;;28.38;53.96
6150;BME280;3106;42.670;23.318;2023-07-20T08:19:51;94189.25;;;28.79;54.10
6150;BME280;3106;42.670;23.318;2023-07-20T08:22:18;94199.09;;;28.62;54.43
6150;BME280;3106;42.670;23.318;2023-07-20T08:24:50;94193.78;;;28.40;55.75
6150;BME280;3106;42.670;23.318;2023-07-20T08:27:27;94199.56;;;28.51;53.59
6150;BME280;3106;42.670;23.318;2023-07-20T08:29:54;94160.63;;;27.99;53.75
6150;BME280;3106;42.670;23.318;2023-07-20T08:32:21;94190.09;;;28.16;53.61
6150;BME280;3106;42.670;23.318;2023-07-20T08:34:48;94195.59;;;28.16;53.86
6150;BME280;3106;42.670;23.318;2023-07-20T08:37:14;94209.38;;;28.34;51.98
6150;BME280;3106;42.670;23.318;2023-07-20T08:39:41;94193.50;;;28.38;50.16
6150;BME280;3106;42.670;23.318;2023-07-20T08:42:10;94203.22;;;28.21;50.91
6150;BME280;3106;42.670;23.318;2023-07-20T08:44:37;94181.88;;;27.90;51.20
6150;BME280;3106;42.670;23.318;2023-07-20T08:47:06;94204.63;;;28.17;51.22
6150;BME280;3106;42.670;23.318;2023-07-20T08:49:34;94197.75;;;28.39;50.45
6150;BME280;3106;42.670;23.318;2023-07-20T08:52:01;94203.44;;;28.45;49.61
6150;BME280;3106;42.670;23.318;2023-07-20T08:54:31;94179.72;;;28.11;50.30
6150;BME280;3106;42.670;23.318;2023-07-20T08:57:02;94193.78;;;28.40;50.04
6150;BME280;3106;42.670;23.318;2023-07-20T08:59:31;94180.63;;;28.62;49.44
6150;BME280;3106;42.670;23.318;2023-07-20T09:01:59;94184.63;;;28.34;49.27
6150;BME280;3106;42.670;23.318;2023-07-20T09:04:26;94179.09;;;28.16;49.15
6150;BME280;3106;42.670;23.318;2023-07-20T09:06:53;94177.00;;;28.29;49.18
6150;BME280;3106;42.670;23.318;2023-07-20T09:09:20;94175.28;;;28.50;47.79
6150;BME280;3106;42.670;23.318;2023-07-20T09:11:48;94185.56;;;28.31;48.67
6150;BME280;3106;42.670;23.318;2023-07-20T09:14:15;94173.63;;;28.07;48.85
6150;BME280;3106;42.670;23.318;2023-07-20T09:16:50;94172.09;;;27.97;50.18
6150;BME280;3106;42.670;23.318;2023-07-20T09:19:17;94167.53;;;28.30;49.55
6150;BME280;3106;42.670;23.318;2023-07-20T09:21:45;94169.56;;;28.71;48.39
6150;BME280;3106;42.670;23.318;2023-07-20T09:24:13;94170.72;;;29.06;46.60
6150;BME280;3106;42.670;23.318;2023-07-20T09:26:43;94162.09;;;29.13;44.42
6150;BME280;3106;42.670;23.318;2023-07-20T09:29:11;94160.28;;;29.10;44.49
6150;BME280;3106;42.670;23.318;2023-07-20T09:31:37;94166.84;;;29.13;44.53
6150;BME280;3106;42.670;23.318;2023-07-20T09:34:06;94155.94;;;29.18;44.02
6150;BME280;3106;42.670;23.318;2023-07-20T09:36:34;94155.63;;;28.93;44.20
6150;BME280;3106;42.670;23.318;2023-07-20T09:39:03;94168.28;;;29.32;43.72
6150;BME280;3106;42.670;23.318;2023-07-20T09:41:30;94137.81;;;29.35;42.90
6150;BME280;3106;42.670;23.318;2023-07-20T09:44:07;94154.13;;;29.71;42.15
6150;BME280;3106;42.670;23.318;2023-07-20T09:46:43;94149.00;;;30.02;41.53
6150;BME280;3106;42.670;23.318;2023-07-20T09:49:11;94161.47;;;29.74;43.58
6150;BME280;3106;42.670;23.318;2023-07-20T09:51:38;94151.63;;;29.82;44.14
6150;BME280;3106;42.670;23.318;2023-07-20T09:54:06;94125.56;;;30.21;43.81
6150;BME280;3106;42.670;23.318;2023-07-20T09:56:34;94125.03;;;30.75;40.84
6150;BME280;3106;42.670;23.318;2023-07-20T09:59:01;94130.19;;;30.82;39.88
6150;BME280;3106;42.670;23.318;2023-07-20T10:01:29;94114.84;;;30.52;39.16
6150;BME280;3106;42.670;23.318;2023-07-20T10:03:58;94135.09;;;30.34;38.29
6150;BME280;3106;42.670;23.318;2023-07-20T10:06:29;94132.03;;;30.18;39.50
6150;BME280;3106;42.670;23.318;2023-07-20T10:09:00;94123.19;;;30.43;39.80
6150;BME280;3106;42.670;23.318;2023-07-20T10:11:30;94141.78;;;30.57;39.09
6150;BME280;3106;42.670;23.318;2023-07-20T10:13:59;94142.16;;;30.79;37.76
6150;BME280;3106;42.670;23.318;2023-07-20T10:16:29;94137.09;;;30.92;38.09
6150;BME280;3106;42.670;23.318;2023-07-20T10:19:03;94145.38;;;31.06;38.29
6150;BME280;3106;42.670;23.318;2023-07-20T10:21:33;94139.09;;;30.77;39.19
6150;BME280;3106;42.670;23.318;2023-07-20T10:24:02;94142.16;;;30.50;39.18
6150;BME280;3106;42.670;23.318;2023-07-20T10:26:31;94150.13;;;30.33;39.01
6150;BME280;3106;42.670;23.318;2023-07-20T10:28:58;94138.78;;;30.17;39.59
6150;BME280;3106;42.670;23.318;2023-07-20T10:31:26;94137.31;;;30.45;39.24
6150;BME280;3106;42.670;23.318;2023-07-20T10:33:54;94124.94;;;30.69;38.72
6150;BME280;3106;42.670;23.318;2023-07-20T10:36:24;94124.94;;;30.84;38.57
6150;BME280;3106;42.670;23.318;2023-07-20T10:38:54;94125.91;;;30.66;39.18
6150;BME280;3106;42.670;23.318;2023-07-20T10:41:27;94124.94;;;30.69;39.94
6150;BME280;3106;42.670;23.318;2023-07-20T10:43:58;94130.91;;;30.39;39.79
6150;BME280;3106;42.670;23.318;2023-07-20T10:46:34;94092.41;;;30.59;39.99
6150;BME280;3106;42.670;23.318;2023-07-20T10:49:03;94065.34;;;30.77;39.86
6150;BME280;3106;42.670;23.318;2023-07-20T10:51:31;94049.13;;;30.85;40.10
6150;BME280;3106;42.670;23.318;2023-07-20T10:54:07;94101.50;;;30.79;39.43
6150;BME280;3106;42.670;23.318;2023-07-20T10:56:34;94094.56;;;30.69;39.42
6150;BME280;3106;42.670;23.318;2023-07-20T10:59:17;94083.97;;;30.82;39.50
6150;BME280;3106;42.670;23.318;2023-07-20T11:01:46;94069.34;;;31.11;39.38
6150;BME280;3106;42.670;23.318;2023-07-20T11:04:15;94061.38;;;31.32;38.44
6150;BME280;3106;42.670;23.318;2023-07-20T11:06:44;94065.03;;;30.90;39.60
6150;BME280;3106;42.670;23.318;2023-07-20T11:09:13;94045.13;;;30.86;39.71
6150;BME280;3106;42.670;23.318;2023-07-20T11:11:41;94051.03;;;30.79;39.89
6150;BME280;3106;42.670;23.318;2023-07-20T11:14:10;94058.38;;;30.82;39.57
6150;BME280;3106;42.670;23.318;2023-07-20T11:16:39;94060.28;;;30.76;40.52
6150;BME280;3106;42.670;23.318;2023-07-20T11:19:14;94057.63;;;31.16;40.17
6150;BME280;3106;42.670;23.318;2023-07-20T11:21:43;94063.84;;;31.50;39.32
6150;BME280;3106;42.670;23.318;2023-07-20T11:24:12;94053.75;;;31.87;39.15
6150;BME280;3106;42.670;23.318;2023-07-20T11:26:40;94045.69;;;32.09;39.42
6150;BME280;3106;42.670;23.318;2023-07-20T11:29:06;94057.94;;;32.23;39.55
6150;BME280;3106;42.670;23.318;2023-07-20T11:31:35;94043.72;;;32.35;38.33
6150;BME280;3106;42.670;23.318;2023-07-20T11:34:02;94046.53;;;32.72;38.85
6150;BME280;3106;42.670;23.318;2023-07-20T11:36:29;94039.16;;;32.63;38.74
6150;BME280;3106;42.670;23.318;2023-07-20T11:38:57;94035.47;;;32.15;39.45
6150;BME280;3106;42.670;23.318;2023-07-20T11:41:26;94029.00;;;31.73;40.28
6150;BME280;3106;42.670;23.318;2023-07-20T11:43:54;94032.28;;;31.57;40.72
6150;BME280;3106;42.670;23.318;2023-07-20T11:46:20;94011.16;;;31.74;41.32
6150;BME280;3106;42.670;23.318;2023-07-20T11:48:48;94017.22;;;31.78;41.26
6150;BME280;3106;42.670;23.318;2023-07-20T11:51:15;94017.44;;;31.54;41.81
6150;BME280;3106;42.670;23.318;2023-07-20T11:53:43;93999.50;;;31.90;41.31
6150;BME280;3106;42.670;23.318;2023-07-20T11:56:11;94018.47;;;32.28;40.86
6150;BME280;3106;42.670;23.318;2023-07-20T11:58:43;94013.38;;;32.21;40.48
6150;BME280;3106;42.670;23.318;2023-07-20T12:01:12;94009.59;;;32.18;39.58
6150;BME280;3106;42.670;23.318;2023-07-20T12:03:39;94005.34;;;31.97;40.18
6150;BME280;3106;42.670;23.318;2023-07-20T12:06:06;94001.44;;;32.09;39.98
6150;BME280;3106;42.670;23.318;2023-07-20T12:08:34;93999.56;;;32.21;39.16
6150;BME280;3106;42.670;23.318;2023-07-20T12:11:01;93999.44;;;32.41;38.09
6150;BME280;3106;42.670;23.318;2023-07-20T12:13:36;93999.44;;;32.35;37.87
6150;BME280;3106;42.670;23.318;2023-07-20T12:16:09;93994.47;;;32.45;38.26
6150;BME280;3106;42.670;23.318;2023-07-20T12:18:36;94002.28;;;32.77;36.78
6150;BME280;3106;42.670;23.318;2023-07-20T12:21:03;93992.38;;;33.07;35.75
6150;BME280;3106;42.670;23.318;2023-07-20T12:23:35;93990.88;;;33.11;35.97
6150;BME280;3106;42.670;23.318;2023-07-20T12:26:06;93988.94;;;33.17;34.87
6150;BME280;3106;42.670;23.318;2023-07-20T12:28:33;93988.47;;;32.83;36.15
6150;BME280;3106;42.670;23.318;2023-07-20T12:31:00;93991.47;;;32.48;36.20
6150;BME280;3106;42.670;23.318;2023-07-20T12:33:28;93979.28;;;32.35;36.60
6150;BME280;3106;42.670;23.318;2023-07-20T12:35:55;93986.00;;;32.59;36.11
6150;BME280;3106;42.670;23.318;2023-07-20T12:38:23;93948.59;;;32.69;34.87
6150;BME280;3106;42.670;23.318;2023-07-20T12:40:50;93978.13;;;32.83;33.13
6150;BME280;3106;42.670;23.318;2023-07-20T12:43:17;93981.28;;;32.65;32.49
6150;BME280;3106;42.670;23.318;2023-07-20T12:45:44;93986.97;;;32.87;31.82
6150;BME280;3106;42.670;23.318;2023-07-20T12:48:11;93988.84;;;33.01;31.03
6150;BME280;3106;42.670;23.318;2023-07-20T12:50:39;93988.16;;;33.17;30.99
6150;BME280;3106;42.670;23.318;2023-07-20T12:53:06;93976.13;;;33.25;31.46
6150;BME280;3106;42.670;23.318;2023-07-20T12:55:33;93973.94;;;33.46;31.48
6150;BME280;3106;42.670;23.318;2023-07-20T12:58:00;93976.91;;;33.31;31.94
6150;BME280;3106;42.670;23.318;2023-07-20T13:00:27;93969.13;;;33.41;31.41
6150;BME280;3106;42.670;23.318;2023-07-20T13:02:54;93974.38;;;33.33;33.28
6150;BME280;3106;42.670;23.318;2023-07-20T13:05:20;93974.78;;;33.15;32.75
6150;BME280;3106;42.670;23.318;2023-07-20T13:07:49;93967.84;;;33.36;32.85
6150;BME280;3106;42.670;23.318;2023-07-20T13:10:15;93965.41;;;33.66;32.63
6150;BME280;3106;42.670;23.318;2023-07-20T13:12:42;93960.78;;;33.35;33.97
6150;BME280;3106;42.670;23.318;2023-07-20T13:15:10;93979.47;;;33.46;33.86
6150;BME280;3106;42.670;23.318;2023-07-20T13:17:38;93959.63;;;33.00;33.95